createdAt,value
2022-10-05T00:00:50.744Z,97.33
2022-10-05T00:03:20.969Z,97.14
2022-10-05T00:05:50.985Z,98.04
2022-10-05T00:08:22.799Z,97.71
2022-10-05T00:10:52.551Z,97.96
2022-10-05T00:13:23.422Z,97.90
2022-10-05T00:15:52.100Z,98.25
2022-10-05T00:18:22.345Z,98.13
2022-10-05T00:20:52.353Z,98.67
2022-10-05T00:23:23.188Z,98.79
2022-10-05T00:25:52.276Z,99.21
2022-10-05T00:28:26.847Z,99.44
2022-10-05T00:30:57.516Z,99.19
2022-10-05T00:33:27.316Z,99.01
2022-10-05T00:35:57.203Z,99.19
2022-10-05T00:38:25.789Z,99.08
2022-10-05T00:41:04.182Z,99.12
2022-10-05T00:43:50.691Z,99.21
2022-10-05T00:46:23.838Z,98.63
2022-10-05T00:49:03.343Z,98.82
2022-10-05T00:51:37.178Z,98.82
2022-10-05T00:54:19.517Z,99.08
2022-10-05T00:57:00.821Z,98.68
2022-10-05T00:59:42.597Z,98.88
2022-10-05T01:02:15.813Z,98.96
2022-10-05T01:04:52.079Z,98.35
2022-10-05T01:07:33.622Z,98.63
2022-10-05T01:10:11.752Z,98.93
2022-10-05T01:12:50.251Z,98.66
2022-10-05T01:15:26.293Z,98.63
2022-10-05T01:18:01.383Z,98.63
2022-10-05T01:20:41.895Z,98.98
2022-10-05T01:23:41.969Z,98.53
2022-10-05T01:26:35.566Z,98.30
2022-10-05T01:29:11.569Z,98.20
2022-10-05T01:31:46.255Z,98.42
2022-10-05T01:34:24.057Z,98.48
2022-10-05T01:37:01.608Z,98.02
2022-10-05T01:39:39.854Z,98.44
2022-10-05T01:42:18.626Z,98.02
2022-10-05T01:44:58.826Z,97.90
2022-10-05T01:47:35.020Z,97.48
2022-10-05T01:50:09.548Z,98.30
2022-10-05T01:52:46.700Z,98.26
2022-10-05T01:55:23.263Z,98.33
2022-10-05T01:58:13.767Z,98.36
2022-10-05T02:00:49.530Z,98.27
2022-10-05T02:03:22.263Z,98.15
2022-10-05T02:05:57.027Z,98.39
2022-10-05T02:08:32.531Z,98.37
2022-10-05T02:11:04.231Z,98.66
2022-10-05T02:13:37.807Z,99.10
2022-10-05T02:16:12.387Z,99.20
2022-10-05T02:18:47.971Z,99.18
2022-10-05T02:21:16.680Z,99.05
2022-10-05T02:23:49.612Z,99.50
2022-10-05T02:26:18.742Z,99.12
2022-10-05T02:28:53.422Z,99.41
2022-10-05T02:31:30.238Z,98.92
2022-10-05T02:34:23.820Z,99.57
2022-10-05T02:37:03.429Z,99.18
2022-10-05T02:39:38.283Z,99.13
2022-10-05T02:42:13.740Z,99.67
2022-10-05T02:44:54.851Z,99.44
2022-10-05T02:47:33.560Z,99.85
2022-10-05T02:50:07.082Z,99.48
2022-10-05T02:52:44.627Z,100.00
2022-10-05T02:55:19.221Z,100.00
2022-10-05T02:57:54.820Z,100.00
2022-10-05T03:00:25.805Z,100.00
2022-10-05T03:03:03.335Z,100.00
2022-10-05T03:05:38.719Z,100.00
2022-10-05T03:08:13.192Z,100.00
2022-10-05T03:10:57.227Z,100.00
2022-10-05T03:13:33.132Z,100.00
2022-10-05T03:16:16.691Z,100.00
2022-10-05T03:19:04.374Z,100.00
2022-10-05T03:21:48.553Z,100.00
2022-10-05T03:24:31.125Z,100.00
2022-10-05T03:27:08.320Z,100.00
2022-10-05T03:29:43.640Z,100.00
2022-10-05T03:32:25.527Z,100.00
2022-10-05T03:35:02.956Z,100.00
2022-10-05T03:37:38.660Z,100.00
2022-10-05T03:40:17.156Z,100.00
2022-10-05T03:42:55.773Z,100.00
2022-10-05T03:45:29.741Z,100.00
2022-10-05T03:48:06.701Z,100.00
2022-10-05T03:50:45.668Z,100.00
2022-10-05T03:53:20.261Z,100.00
2022-10-05T03:55:53.131Z,100.00
2022-10-05T03:58:26.468Z,100.00
2022-10-05T04:01:00.431Z,100.00
2022-10-05T04:03:34.039Z,100.00
2022-10-05T04:06:11.103Z,100.00
2022-10-05T04:08:47.991Z,100.00
2022-10-05T04:11:22.616Z,100.00
2022-10-05T04:13:57.084Z,100.00
2022-10-05T04:16:29.624Z,100.00
2022-10-05T04:19:04.896Z,100.00
2022-10-05T04:21:39.584Z,100.00
2022-10-05T04:24:15.555Z,100.00
2022-10-05T04:26:51.849Z,100.00
2022-10-05T04:29:32.422Z,100.00
2022-10-05T04:32:14.594Z,100.00
2022-10-05T04:34:57.849Z,100.00
2022-10-05T04:37:37.249Z,100.00
2022-10-05T04:40:18.900Z,100.00
2022-10-05T04:42:55.524Z,100.00
2022-10-05T04:45:33.804Z,100.00
2022-10-05T04:48:34.233Z,100.00
2022-10-05T04:51:15.609Z,100.00
2022-10-05T04:53:55.335Z,100.00
2022-10-05T04:56:33.765Z,100.00
2022-10-05T04:59:26.997Z,100.00
2022-10-05T05:02:06.787Z,100.00
2022-10-05T05:05:00.635Z,100.00
2022-10-05T05:07:42.087Z,100.00
2022-10-05T05:10:51.709Z,100.00
2022-10-05T05:13:44.195Z,100.00
2022-10-05T05:16:21.607Z,100.00
2022-10-05T05:19:07.460Z,100.00
2022-10-05T05:21:44.386Z,100.00
2022-10-05T05:24:20.995Z,100.00
2022-10-05T05:27:03.108Z,100.00
2022-10-05T05:29:43.670Z,100.00
2022-10-05T05:32:22.958Z,100.00
2022-10-05T05:35:10.000Z,100.00
2022-10-05T05:37:48.956Z,100.00
2022-10-05T05:40:20.572Z,100.00
2022-10-05T05:42:58.821Z,100.00
2022-10-05T05:45:40.700Z,100.00
2022-10-05T05:48:22.353Z,100.00
2022-10-05T05:50:59.448Z,100.00
2022-10-05T05:53:34.430Z,100.00
2022-10-05T05:56:10.488Z,100.00
2022-10-05T05:58:48.414Z,100.00
2022-10-05T06:01:33.359Z,100.00
2022-10-05T06:04:10.777Z,100.00
2022-10-05T06:06:44.307Z,100.00
2022-10-05T06:09:19.644Z,100.00
2022-10-05T06:11:52.180Z,100.00
2022-10-05T06:14:30.494Z,100.00
2022-10-05T06:17:04.112Z,100.00
2022-10-05T06:19:35.984Z,100.00
2022-10-05T06:22:08.834Z,100.00
2022-10-05T06:24:41.929Z,100.00
2022-10-05T06:27:25.733Z,100.00
2022-10-05T06:30:13.221Z,100.00
2022-10-05T06:33:01.396Z,100.00
2022-10-05T06:35:44.528Z,99.99
2022-10-05T06:38:36.203Z,100.00
2022-10-05T06:41:16.796Z,99.64
2022-10-05T06:43:56.042Z,100.00
2022-10-05T06:46:31.582Z,99.60
2022-10-05T06:49:15.564Z,99.34
2022-10-05T06:51:52.481Z,99.23
2022-10-05T06:54:36.545Z,99.14
2022-10-05T06:57:14.027Z,98.61
2022-10-05T06:59:51.120Z,98.05
2022-10-05T07:02:28.375Z,98.19
2022-10-05T07:05:26.906Z,98.17
2022-10-05T07:07:59.475Z,98.02
2022-10-05T07:10:34.682Z,97.80
2022-10-05T07:13:14.895Z,97.18
2022-10-05T07:15:50.101Z,97.37
2022-10-05T07:18:49.207Z,96.90
2022-10-05T07:21:29.433Z,96.86
2022-10-05T07:24:05.804Z,96.70
2022-10-05T07:26:41.936Z,95.96
2022-10-05T07:29:35.994Z,95.89
2022-10-05T07:32:16.288Z,95.59
2022-10-05T07:35:00.988Z,96.01
2022-10-05T07:37:51.596Z,95.43
2022-10-05T07:40:26.265Z,94.80
2022-10-05T07:43:06.404Z,94.61
2022-10-05T07:45:41.056Z,94.04
2022-10-05T07:48:18.278Z,94.12
2022-10-05T07:51:00.012Z,93.83
2022-10-05T07:53:35.457Z,92.78
2022-10-05T07:56:13.570Z,92.50
2022-10-05T07:58:47.994Z,92.66
2022-10-05T08:01:23.480Z,92.14
2022-10-05T08:03:57.639Z,91.58
2022-10-05T08:06:40.754Z,90.32
2022-10-05T08:09:21.536Z,90.80
2022-10-05T08:11:57.205Z,90.42
2022-10-05T08:14:33.836Z,90.30
2022-10-05T08:17:10.244Z,89.82
2022-10-05T08:19:47.704Z,89.67
2022-10-05T08:22:25.531Z,89.77
2022-10-05T08:25:00.434Z,89.13
2022-10-05T08:27:36.872Z,88.78
2022-10-05T08:30:10.009Z,87.53
2022-10-05T08:32:44.815Z,87.39
2022-10-05T08:35:27.344Z,86.95
2022-10-05T08:37:58.069Z,87.11
2022-10-05T08:40:58.062Z,87.27
2022-10-05T08:43:55.193Z,86.62
2022-10-05T08:46:51.292Z,86.09
2022-10-05T08:50:01.410Z,85.28
2022-10-05T08:52:31.628Z,84.79
2022-10-05T08:55:23.621Z,84.71
2022-10-05T08:58:04.841Z,84.11
2022-10-05T09:00:46.950Z,83.11
2022-10-05T09:03:28.978Z,83.10
2022-10-05T09:06:22.975Z,82.93
2022-10-05T09:09:32.304Z,82.20
2022-10-05T09:12:33.470Z,82.34
2022-10-05T09:15:26.153Z,81.72
2022-10-05T09:18:31.425Z,81.19
2022-10-05T09:21:04.595Z,81.52
2022-10-05T09:23:40.120Z,81.43
2022-10-05T09:26:29.794Z,81.37
2022-10-05T09:29:15.593Z,80.74
2022-10-05T09:32:14.205Z,80.50
2022-10-05T09:35:06.255Z,80.57
2022-10-05T09:37:58.287Z,79.41
2022-10-05T09:41:05.086Z,79.24
2022-10-05T09:44:01.294Z,79.24
2022-10-05T09:47:02.201Z,77.57
2022-10-05T09:49:57.154Z,77.01
2022-10-05T09:52:51.720Z,75.64
2022-10-05T09:55:51.435Z,76.27
2022-10-05T09:58:49.821Z,76.51
2022-10-05T10:01:37.075Z,76.70
2022-10-05T10:04:40.145Z,76.57
2022-10-05T10:07:39.091Z,75.95
2022-10-05T10:10:40.697Z,76.43
2022-10-05T10:13:40.715Z,75.45
2022-10-05T10:16:20.173Z,76.11
2022-10-05T10:19:21.242Z,76.41
2022-10-05T10:22:20.558Z,76.84
2022-10-05T10:25:21.779Z,77.03
2022-10-05T10:28:07.938Z,76.02
2022-10-05T10:30:56.174Z,76.56
2022-10-05T10:33:46.827Z,75.16
2022-10-05T10:36:23.122Z,76.44
2022-10-05T10:39:07.656Z,76.32
2022-10-05T10:41:54.554Z,75.82
2022-10-05T10:44:52.438Z,74.46
2022-10-05T10:48:00.422Z,75.41
2022-10-05T10:51:05.261Z,75.32
2022-10-05T10:54:04.768Z,75.17
2022-10-05T10:57:08.716Z,75.31
2022-10-05T11:00:15.731Z,74.82
2022-10-05T11:03:29.409Z,74.67
2022-10-05T11:06:22.307Z,74.69
2022-10-05T11:09:09.401Z,73.58
2022-10-05T11:12:20.704Z,74.54
2022-10-05T11:15:07.527Z,74.18
2022-10-05T11:18:09.347Z,73.34
2022-10-05T11:21:13.093Z,73.52
2022-10-05T11:24:10.539Z,72.17
2022-10-05T11:26:55.690Z,72.22
2022-10-05T11:30:02.020Z,69.62
2022-10-05T11:33:11.304Z,70.17
2022-10-05T11:36:04.471Z,69.64
2022-10-05T11:38:55.841Z,68.72
2022-10-05T11:41:49.431Z,64.56
2022-10-05T11:45:06.831Z,64.61
2022-10-05T11:47:41.664Z,65.47
2022-10-05T11:50:21.067Z,65.00
2022-10-05T11:52:58.425Z,64.52
2022-10-05T11:55:32.925Z,65.54
2022-10-05T11:58:07.710Z,66.52
2022-10-05T12:00:43.717Z,66.24
2022-10-05T12:03:34.331Z,68.50
2022-10-05T12:06:23.518Z,68.65
2022-10-05T12:09:04.406Z,70.59
2022-10-05T12:12:04.256Z,70.41
2022-10-05T12:14:42.439Z,69.51
2022-10-05T12:17:21.703Z,67.11
2022-10-05T12:19:55.839Z,65.01
2022-10-05T12:22:27.646Z,63.27
2022-10-05T12:25:12.864Z,61.93
2022-10-05T12:27:46.277Z,60.38
2022-10-05T12:30:18.856Z,58.97
2022-10-05T12:33:02.215Z,58.76
2022-10-05T12:35:47.940Z,56.67
2022-10-05T12:38:27.664Z,55.26
2022-10-05T12:41:05.535Z,53.31
2022-10-05T12:43:48.265Z,52.09
2022-10-05T12:46:29.494Z,51.67
2022-10-05T12:49:24.830Z,51.05
2022-10-05T12:51:58.482Z,51.22
2022-10-05T12:54:38.757Z,49.70
2022-10-05T12:57:16.041Z,49.53
2022-10-05T12:59:51.884Z,49.60
2022-10-05T13:02:30.495Z,48.56
2022-10-05T13:05:04.381Z,48.78
2022-10-05T13:07:50.622Z,47.97
2022-10-05T13:10:30.806Z,49.10
2022-10-05T13:13:24.202Z,49.89
2022-10-05T13:16:00.366Z,50.45
2022-10-05T13:18:41.872Z,50.83
2022-10-05T13:21:15.337Z,52.13
2022-10-05T13:23:57.657Z,53.82
2022-10-05T13:26:33.579Z,54.40
2022-10-05T13:29:14.019Z,54.84
2022-10-05T13:31:47.959Z,55.98
2022-10-05T13:34:22.977Z,55.60
2022-10-05T13:37:04.156Z,55.73
2022-10-05T13:39:46.971Z,57.63
2022-10-05T13:42:19.682Z,57.12
2022-10-05T13:44:52.403Z,56.54
2022-10-05T13:47:31.575Z,57.58
2022-10-05T13:50:07.073Z,57.70
2022-10-05T13:52:46.615Z,58.08
2022-10-05T13:55:22.660Z,58.50
2022-10-05T13:57:57.876Z,59.10
2022-10-05T14:00:28.801Z,59.28
2022-10-05T14:03:00.881Z,58.40
2022-10-05T14:05:31.540Z,57.30
2022-10-05T14:08:17.473Z,56.95
2022-10-05T14:10:48.515Z,57.76
2022-10-05T14:13:24.428Z,57.60
2022-10-05T14:16:04.583Z,58.95
2022-10-05T14:18:37.505Z,58.00
2022-10-05T14:21:19.430Z,57.77
2022-10-05T14:23:48.182Z,59.16
2022-10-05T14:26:31.826Z,59.68
2022-10-05T14:29:02.875Z,60.77
2022-10-05T14:31:35.949Z,60.12
2022-10-05T14:34:31.311Z,60.93
2022-10-05T14:37:03.691Z,61.63
2022-10-05T14:39:36.216Z,62.36
2022-10-05T14:42:16.480Z,62.11
2022-10-05T14:44:46.756Z,62.26
2022-10-05T14:47:23.836Z,62.84
2022-10-05T14:50:15.628Z,63.77
2022-10-05T14:52:51.894Z,63.82
2022-10-05T14:55:39.381Z,64.67
2022-10-05T14:58:33.357Z,64.57
2022-10-05T15:01:13.681Z,63.99
2022-10-05T15:03:52.142Z,62.87
2022-10-05T15:06:29.436Z,62.55
2022-10-05T15:09:17.729Z,62.90
2022-10-05T15:11:53.686Z,61.73
2022-10-05T15:14:27.341Z,62.48
2022-10-05T15:17:00.151Z,62.87
2022-10-05T15:19:39.128Z,61.78
2022-10-05T15:22:24.397Z,62.40
2022-10-05T15:25:02.601Z,62.43
2022-10-05T15:27:42.257Z,62.58
2022-10-05T15:30:14.196Z,62.79
2022-10-05T15:33:04.543Z,62.50
2022-10-05T15:35:55.707Z,62.73
2022-10-05T15:38:26.676Z,63.21
2022-10-05T15:41:08.168Z,63.17
2022-10-05T15:43:48.555Z,64.46
2022-10-05T15:46:23.448Z,64.52
2022-10-05T15:49:08.527Z,64.62
2022-10-05T15:51:51.040Z,65.38
2022-10-05T15:54:43.056Z,65.13
2022-10-05T15:57:26.698Z,66.52
2022-10-05T16:00:02.075Z,65.99
2022-10-05T16:02:38.735Z,66.31
2022-10-05T16:05:49.660Z,66.45
2022-10-05T16:08:54.322Z,66.83
2022-10-05T16:11:32.708Z,66.68
2022-10-05T16:14:14.325Z,66.81
2022-10-05T16:16:58.363Z,67.17
2022-10-05T16:19:33.162Z,67.72
2022-10-05T16:22:14.191Z,67.39
2022-10-05T16:24:56.148Z,67.46
2022-10-05T16:27:40.478Z,67.53
2022-10-05T16:30:13.709Z,67.84
2022-10-05T16:32:50.043Z,68.17
2022-10-05T16:35:30.851Z,68.84
2022-10-05T16:38:08.070Z,69.18
2022-10-05T16:40:45.701Z,69.85
2022-10-05T16:43:26.879Z,70.01
2022-10-05T16:46:10.043Z,70.44
2022-10-05T16:48:49.664Z,70.83
2022-10-05T16:51:26.072Z,72.09
2022-10-05T16:54:03.205Z,72.25
2022-10-05T16:56:39.957Z,72.49
2022-10-05T16:59:30.784Z,73.02
2022-10-05T17:02:07.569Z,73.03
2022-10-05T17:04:46.081Z,73.56
2022-10-05T17:07:30.699Z,74.05
2022-10-05T17:10:27.551Z,74.43
2022-10-05T17:13:05.113Z,75.94
2022-10-05T17:15:42.577Z,75.68
2022-10-05T17:18:24.366Z,76.22
2022-10-05T17:21:02.583Z,76.96
2022-10-05T17:23:50.244Z,77.50
2022-10-05T17:26:35.689Z,78.18
2022-10-05T17:29:16.476Z,78.95
2022-10-05T17:32:11.871Z,79.42
2022-10-05T17:35:18.159Z,80.06
2022-10-05T17:38:07.509Z,80.24
2022-10-05T17:40:39.551Z,81.15
2022-10-05T17:43:25.829Z,81.59
2022-10-05T17:45:58.596Z,81.55
2022-10-05T17:48:42.819Z,82.74
2022-10-05T17:51:57.193Z,82.86
2022-10-05T17:54:46.882Z,83.26
2022-10-05T17:57:22.358Z,83.74
2022-10-05T18:00:00.576Z,84.20
2022-10-05T18:02:44.068Z,84.67
2022-10-05T18:05:25.719Z,84.93
2022-10-05T18:08:28.915Z,85.42
2022-10-05T18:11:13.007Z,85.73
2022-10-05T18:13:46.391Z,86.01
2022-10-05T18:16:35.592Z,86.61
2022-10-05T18:19:16.769Z,87.05
2022-10-05T18:22:03.459Z,87.38
2022-10-05T18:24:53.172Z,87.26
2022-10-05T18:27:43.561Z,88.04
2022-10-05T18:30:22.921Z,88.14
2022-10-05T18:33:27.279Z,88.33
2022-10-05T18:36:12.031Z,88.53
2022-10-05T18:38:56.332Z,88.87
2022-10-05T18:41:40.469Z,89.00
2022-10-05T18:44:25.112Z,89.27
2022-10-05T18:47:02.082Z,89.47
2022-10-05T18:49:45.044Z,89.60
2022-10-05T18:52:23.495Z,89.55
2022-10-05T18:55:03.868Z,89.88
2022-10-05T18:58:00.818Z,90.10
2022-10-05T19:00:43.785Z,90.19
2022-10-05T19:03:20.549Z,90.27
2022-10-05T19:06:00.220Z,90.58
2022-10-05T19:08:39.988Z,90.56
2022-10-05T19:11:19.107Z,90.85
2022-10-05T19:13:55.828Z,91.01
2022-10-05T19:16:40.143Z,91.09
2022-10-05T19:19:30.748Z,90.97
2022-10-05T19:22:06.007Z,90.91
2022-10-05T19:24:47.715Z,91.23
2022-10-05T19:27:27.221Z,91.16
2022-10-05T19:30:13.677Z,91.19
2022-10-05T19:32:56.961Z,90.97
2022-10-05T19:35:34.207Z,90.94
2022-10-05T19:38:22.159Z,91.22
2022-10-05T19:40:59.851Z,91.64
2022-10-05T19:43:41.836Z,91.75
2022-10-05T19:46:19.918Z,91.85
2022-10-05T19:48:51.368Z,91.79
2022-10-05T19:51:29.552Z,91.76
2022-10-05T19:54:01.341Z,91.72
2022-10-05T19:56:34.824Z,91.60
2022-10-05T19:59:13.232Z,91.78
2022-10-05T20:01:50.775Z,91.87
2022-10-05T20:04:34.395Z,91.88
2022-10-05T20:07:03.369Z,91.84
2022-10-05T20:09:51.289Z,91.87
2022-10-05T20:12:23.066Z,91.91
2022-10-05T20:15:26.630Z,91.74
2022-10-05T20:18:12.689Z,91.58
2022-10-05T20:20:45.780Z,91.53
2022-10-05T20:23:24.924Z,90.97
2022-10-05T20:26:11.391Z,90.85
2022-10-05T20:28:41.619Z,90.49
2022-10-05T20:31:10.229Z,90.87
2022-10-05T20:33:39.014Z,91.00
2022-10-05T20:36:08.667Z,90.73
2022-10-05T20:38:40.886Z,90.72
2022-10-05T20:41:10.458Z,90.38
2022-10-05T20:43:39.449Z,90.28
2022-10-05T20:46:09.430Z,90.04
2022-10-05T20:48:37.935Z,89.89
2022-10-05T20:51:06.685Z,89.80
2022-10-05T20:53:35.269Z,89.63
2022-10-05T20:56:04.726Z,89.66
2022-10-05T20:58:33.209Z,89.57
2022-10-05T21:01:19.084Z,89.26
2022-10-05T21:03:49.665Z,89.28
2022-10-05T21:06:19.102Z,89.33
2022-10-05T21:08:47.905Z,89.28
2022-10-05T21:11:16.447Z,89.63
2022-10-05T21:13:45.826Z,89.67
2022-10-05T21:16:16.383Z,89.79
2022-10-05T21:18:46.945Z,89.95
2022-10-05T21:21:17.708Z,90.21
2022-10-05T21:23:46.832Z,89.91
2022-10-05T21:26:16.475Z,89.86
2022-10-05T21:28:45.028Z,89.65
2022-10-05T21:31:13.559Z,89.90
2022-10-05T21:33:42.186Z,89.50
2022-10-05T21:36:10.775Z,88.94
2022-10-05T21:38:40.627Z,88.73
2022-10-05T21:41:09.549Z,88.78
2022-10-05T21:43:38.042Z,88.42
2022-10-05T21:46:07.463Z,88.96
2022-10-05T21:48:38.954Z,88.25
2022-10-05T21:51:10.359Z,88.06
2022-10-05T21:53:44.052Z,88.38
2022-10-05T21:56:15.460Z,88.60
2022-10-05T21:58:45.819Z,88.38
2022-10-05T22:01:16.878Z,88.83
2022-10-05T22:03:48.928Z,88.76
2022-10-05T22:06:17.632Z,88.45
2022-10-05T22:08:47.532Z,88.73
2022-10-05T22:11:18.001Z,88.22
2022-10-05T22:13:48.811Z,88.65
2022-10-05T22:16:19.259Z,88.92
2022-10-05T22:18:48.280Z,88.77
2022-10-05T22:21:17.435Z,88.48
2022-10-05T22:23:47.399Z,88.95
2022-10-05T22:26:19.068Z,89.05
2022-10-05T22:28:48.503Z,89.63
2022-10-05T22:31:18.202Z,89.95
2022-10-05T22:33:46.984Z,89.85
2022-10-05T22:36:15.628Z,90.50
2022-10-05T22:38:44.797Z,90.44
2022-10-05T22:41:17.269Z,90.70
2022-10-05T22:43:48.683Z,90.52
2022-10-05T22:46:17.608Z,90.63
2022-10-05T22:48:46.245Z,90.92
2022-10-05T22:51:14.743Z,90.95
2022-10-05T22:53:43.304Z,91.27
2022-10-05T22:56:14.765Z,91.49
2022-10-05T22:58:44.224Z,92.04
2022-10-05T23:01:14.866Z,91.96
2022-10-05T23:03:44.301Z,91.60
2022-10-05T23:06:15.156Z,91.88
2022-10-05T23:08:44.111Z,92.27
2022-10-05T23:11:16.182Z,92.36
2022-10-05T23:13:45.004Z,92.54
2022-10-05T23:16:14.957Z,92.69
2022-10-05T23:18:44.239Z,92.91
2022-10-05T23:21:12.790Z,93.20
2022-10-05T23:23:42.973Z,93.45
2022-10-05T23:26:12.714Z,93.17
2022-10-05T23:28:47.308Z,93.50
2022-10-05T23:31:17.902Z,94.14
2022-10-05T23:33:46.464Z,94.62
2022-10-05T23:36:17.235Z,94.08
2022-10-05T23:38:46.345Z,94.46
2022-10-05T23:41:16.071Z,94.54
2022-10-05T23:43:46.013Z,94.85
2022-10-05T23:46:15.470Z,94.79
2022-10-05T23:48:44.236Z,94.83
2022-10-05T23:51:14.239Z,95.20
2022-10-05T23:53:42.765Z,94.71
2022-10-05T23:56:11.455Z,95.42
2022-10-05T23:58:40.292Z,95.34
